Aviation Digital Data Service (ADDS)

Output produced by METARs form (0227 UTC 21 November 2017)
found at http://www.aviationweather.gov/adds/metars/
 
UTAA 210200Z 21003KT 9999 SCT230 07/M04 Q1013 R88/70D NOSIG
TAF UTAA 202230Z 2100/2124 12014KT 5000 SCT050 530009 
     TEMPO 2100/2102 20010KT 3000 HZ 
     TEMPO 2103/2115 10012G22KT 
     TEMPO 2116/2124 22010KT
       
UTAK 210200Z 15012KT CAVOK 15/M01 Q1011 R16R/CLRD70 NOSIG
TAF UTAK 202230Z 2100/2124 14014G24KT 6000 SCT030 BKN100 530007 
     TEMPO 2100/2104 07016KT 
     TEMPO 2104/2112 20014G24KT SCT023 SCT100
       
UTAM 210200Z 12010KT 6000 SKC 07/M05 Q1018 NOSIG
TAF UTAM 202235Z 2100/2124 10016KT 5000 SCT050 BKN100 530009 
     TEMPO 2100/2106 15014G24KT 3000 DRDU 
     TEMPO 2106/2116 18018G28KT 2000 BLDU
       
UTAT 210200Z 12010KT CAVOK 03/M01 Q1018 R08/CLRD70 NOSIG
TAF UTAT 202251Z 2100/2124 10016KT 9999 SCT050 BKN100 530005 
     TEMPO 2100/2106 15016KT
       
UTAV 210200Z 09004KT 7000 FEW200 03/I02 Q1022 NOSIG
TAF UTAV 202230Z 2100/2124 10016KT 5000 SCT050 530005 
     TEMPO 2100/2106 16018G28KT 2000 BLDU
       
UTDD 210200Z VRB01MPS 7000 NSC 02/M05 Q1024 R09/D NOSIG RMK QFE699/0932
TAF UTDD 210000Z 2101/2113 VRB02MPS 3000 BR FU FEW066 SCT150 
     TEMPO 2101/2107 1000 BR FU
       
UTDK 210200Z 04002MPS 9999 NSC 03/M04 Q1024 R01/09//70 RMK QFE710/0947
TAF UTDK 210000Z 2101/2110 VRB02MPS 6000 FEW066 SCT150 
     TEMPO 2101/2107 03005MPS 2100 BR
       
UTDL 210200Z 08008MPS 2800 BR FEW230 06/00 Q1024 88CLRD70 TEMPO 2000 BR RMK QFE729/0972
TAF UTDL 210000Z 2101/2110 08008MPS 3000 BR NSC 
     TEMPO 2101/2110 07007G12MPS 1500 BR SCT005
       
UTDT 210200Z 00000MPS 1600 BR FEW100 01/01 Q1023 35////// RMK QFE727/0970
TAF UTDT 210000Z 2101/2110 VRB02MPS 1700 BR FEW066 SCT100 
     TEMPO 2101/2105 0500 FG VV003 
     BECMG 2105/2107 6000 NSW
       
UTFF 210200Z 16006KT 8000 NSC M01/M06 Q1025 R99/CLRD70
TAF UTFF 210010Z 2101/2110 34008KT 5000 BR NSC 
     TEMPO 2101/2107 VRB02KT 2000 BR
       
UTFN 210200Z 31002KT 9999 NSC 00/M07 Q1026 R28/CLRD70 NOSIG
TAF UTFN 202300Z 2100/2124 14008KT 5000 BR NSC 
     TEMPO 2100/2112 VRB02KT 3000 BR
       
UTNN 210200Z 11008KT CAVOK 07/M02 Q1019 R15/CLRD60 NOSIG
TAF UTNN 202300Z 2100/2124 12010G20KT CAVOK 
     TEMPO 2118/2124 VRB04KT
       
UTNU 210200Z 10008KT 6000 NSC 02/M02 Q1019 R13/CLRD70 NOSIG
TAF UTNU 202258Z 2100/2124 10010G20KT 7000 NSC 
     TEMPO 2100/2104 VRB04KT 3000 BR SCT100
       
UTSA 210200Z 09010KT 4900 FU NSC M00/M05 Q1022 R07/CLRD70 NOSIG
TAF UTSA 202301Z 2100/2124 VRB03KT 7000 NSC 
     TEMPO 2100/2104 11012KT 4500 BR FU 
     TEMPO 2104/2112 09012KT FEW033 SCT100
       
UTSB 210200Z 05003KT 6000 NSC M00/M04 Q1021 R01/CLRD70 NOSIG
TAF UTSB 202300Z 2100/2124 VRB03KT 7000 NSC 
     TEMPO 2100/2104 09010KT 4500 BR 
     TEMPO 2104/2112 06010KT FEW033 SCT100
       
UTSK 210200Z 07006KT CAVOK 01/M06 Q1021 R16/CLRD70
TAF UTSK 202356Z 2101/2110 07010G20KT CAVOK 
     TEMPO 2101/2104 5000 BR
       
UTSS 210200Z 12006KT 6000 NSC 03/M10 Q1022 R09/70D NOSIG
TAF UTSS 202257Z 2100/2124 12010G20KT 9999 NSC 
     TEMPO 2100/2105 5000 BR 
     TEMPO 2105/2114 30010G20KT
       
UTST 210200Z 03004KT 7000 NSC 03/M00 Q1022 R88/CLRD70 NOSIG
TAF UTST 202300Z 2100/2124 02008G18KT 6000 NSC 
     TEMPO 2100/2104 2400 BR 
     TEMPO 2104/2113 08008G18KT
       
UTTT 210200Z 07002KT 4000 BR FU NSC M00/M04 Q1024 R26R/CLRD70 NOSIG
TAF UTTT 202300Z 2100/2124 08008KT 7000 NSC 
     TEMPO 2100/2104 2000 BR FU
       
UTSB 210200Z 05003KT 6000 NSC M00/M04 Q1021 R01/CLRD70 NOSIG
TAF UTSB 202300Z 2100/2124 VRB03KT 7000 NSC 
     TEMPO 2100/2104 09010KT 4500 BR 
     TEMPO 2104/2112 06010KT FEW033 SCT100
       
UTSK 210200Z 07006KT CAVOK 01/M06 Q1021 R16/CLRD70
TAF UTSK 202356Z 2101/2110 07010G20KT CAVOK 
     TEMPO 2101/2104 5000 BR
       
UTSS 210200Z 12006KT 6000 NSC 03/M10 Q1022 R09/70D NOSIG
TAF UTSS 202257Z 2100/2124 12010G20KT 9999 NSC 
     TEMPO 2100/2105 5000 BR 
     TEMPO 2105/2114 30010G20KT
       
UTST 210200Z 03004KT 7000 NSC 03/M00 Q1022 R88/CLRD70 NOSIG
TAF UTST 202300Z 2100/2124 02008G18KT 6000 NSC 
     TEMPO 2100/2104 2400 BR 
     TEMPO 2104/2113 08008G18KT
       
UTNU 210200Z 10008KT 6000 NSC 02/M02 Q1019 R13/CLRD70 NOSIG
TAF UTNU 202258Z 2100/2124 10010G20KT 7000 NSC 
     TEMPO 2100/2104 VRB04KT 3000 BR SCT100
       
UTTT 210200Z 07002KT 4000 BR FU NSC M00/M04 Q1024 R26R/CLRD70 NOSIG
TAF UTTT 202300Z 2100/2124 08008KT 7000 NSC 
     TEMPO 2100/2104 2000 BR FU